createdAt,value
2022-12-22T00:00:12.039Z,81.70
2022-12-22T00:02:57.237Z,81.80
2022-12-22T00:05:50.014Z,81.60
2022-12-22T00:09:00.286Z,81.50
2022-12-22T00:11:48.908Z,81.50
2022-12-22T00:14:41.043Z,81.50
2022-12-22T00:17:29.928Z,81.50
2022-12-22T00:20:22.089Z,81.40
2022-12-22T00:23:07.439Z,81.50
2022-12-22T00:25:59.059Z,81.20
2022-12-22T00:28:44.508Z,81.20
2022-12-22T00:31:36.007Z,81.10
2022-12-22T00:34:32.421Z,81.40
2022-12-22T00:37:24.998Z,81.70
2022-12-22T00:40:17.001Z,81.90
2022-12-22T00:43:02.237Z,81.90
2022-12-22T00:45:54.061Z,81.80
2022-12-22T00:48:44.046Z,81.70
2022-12-22T00:51:36.030Z,81.70
2022-12-22T00:54:28.112Z,81.70
2022-12-22T00:57:20.069Z,81.60
2022-12-22T01:00:06.976Z,81.50
2022-12-22T01:02:59.269Z,81.40
2022-12-22T01:05:45.886Z,81.40
2022-12-22T01:08:38.027Z,81.30
2022-12-22T01:11:30.100Z,81.40
2022-12-22T01:14:22.006Z,81.60
2022-12-22T01:17:14.060Z,81.60
2022-12-22T01:19:59.380Z,81.80
2022-12-22T01:22:52.082Z,81.90
2022-12-22T01:25:37.912Z,81.80
2022-12-22T01:28:30.051Z,81.70
2022-12-22T01:31:22.045Z,81.90
2022-12-22T01:34:07.451Z,81.90
2022-12-22T01:36:59.052Z,82.00
2022-12-22T01:39:44.360Z,81.90
2022-12-22T01:42:37.027Z,81.80
2022-12-22T01:45:41.159Z,81.60
2022-12-22T01:48:40.035Z,81.60
2022-12-22T01:51:34.008Z,81.60
2022-12-22T01:54:19.840Z,81.80
2022-12-22T01:57:13.151Z,81.80
2022-12-22T01:59:58.633Z,81.80
2022-12-22T02:02:51.202Z,81.80
2022-12-22T02:05:50.717Z,81.60
2022-12-22T02:08:52.050Z,81.60
2022-12-22T02:11:50.029Z,81.50
2022-12-22T02:14:40.184Z,81.50
2022-12-22T02:17:51.047Z,81.70
2022-12-22T02:21:03.035Z,81.80
2022-12-22T02:24:14.050Z,81.80
2022-12-22T02:27:14.158Z,81.90
2022-12-22T02:30:01.912Z,81.80
2022-12-22T02:33:02.214Z,81.60
2022-12-22T02:36:18.064Z,81.50
2022-12-22T02:39:10.028Z,81.70
2022-12-22T02:42:02.057Z,81.60
2022-12-22T02:45:16.734Z,81.40
2022-12-22T02:48:12.086Z,81.50
2022-12-22T02:51:17.050Z,81.50
2022-12-22T02:54:02.260Z,81.30
2022-12-22T02:56:54.994Z,81.30
2022-12-22T02:59:47.084Z,81.30
2022-12-22T03:02:39.378Z,81.40
2022-12-22T03:05:25.052Z,81.60
2022-12-22T03:08:17.106Z,81.70
2022-12-22T03:11:08.709Z,81.80
2022-12-22T03:14:01.105Z,81.70
2022-12-22T03:16:46.364Z,81.70
2022-12-22T03:19:38.059Z,81.60
2022-12-22T03:22:30.077Z,81.40
2022-12-22T03:25:15.180Z,81.30
2022-12-22T03:27:49.062Z,81.20
2022-12-22T03:30:22.079Z,81.20
2022-12-22T03:32:48.956Z,81.20
2022-12-22T03:35:22.042Z,81.30
2022-12-22T03:37:55.086Z,81.20
2022-12-22T03:40:28.033Z,81.30
2022-12-22T03:43:13.235Z,81.40
2022-12-22T03:46:05.059Z,81.40
2022-12-22T03:48:31.914Z,81.60
2022-12-22T03:51:05.062Z,81.50
2022-12-22T03:53:31.909Z,81.20
2022-12-22T03:56:08.026Z,81.10
2022-12-22T03:58:42.103Z,81.10
2022-12-22T04:01:09.030Z,81.10
2022-12-22T04:03:35.893Z,81.30
2022-12-22T04:06:09.144Z,81.50
2022-12-22T04:08:49.050Z,81.30
2022-12-22T04:11:41.149Z,81.20
2022-12-22T04:14:15.045Z,81.20
2022-12-22T04:16:48.136Z,81.20
2022-12-22T04:19:23.099Z,81.30
2022-12-22T04:21:49.965Z,81.30
2022-12-22T04:24:23.075Z,81.30
2022-12-22T04:26:50.263Z,81.30
2022-12-22T04:29:24.064Z,81.40
2022-12-22T04:31:50.998Z,81.40
2022-12-22T04:34:24.058Z,81.40
2022-12-22T04:36:50.923Z,81.40
2022-12-22T04:39:24.111Z,81.30
2022-12-22T04:41:50.965Z,81.50
2022-12-22T04:44:24.090Z,81.40
2022-12-22T04:46:51.082Z,81.30
2022-12-22T04:49:24.094Z,81.30
2022-12-22T04:51:50.969Z,81.30
2022-12-22T04:54:24.076Z,81.40
2022-12-22T04:56:50.954Z,81.50
2022-12-22T04:59:17.856Z,81.70
2022-12-22T05:01:51.158Z,81.80
2022-12-22T05:04:25.075Z,81.70
2022-12-22T05:06:51.964Z,81.70
2022-12-22T05:09:32.076Z,81.50
2022-12-22T05:12:25.526Z,81.40
2022-12-22T05:14:59.140Z,81.40
2022-12-22T05:17:33.066Z,81.40
2022-12-22T05:19:59.932Z,81.60
2022-12-22T05:22:33.031Z,81.70
2022-12-22T05:25:09.114Z,81.60
2022-12-22T05:27:43.048Z,81.40
2022-12-22T05:30:17.083Z,81.40
2022-12-22T05:32:43.989Z,81.30
2022-12-22T05:35:17.063Z,81.40
2022-12-22T05:37:50.062Z,81.30
2022-12-22T05:40:16.976Z,81.40
2022-12-22T05:42:50.094Z,81.40
2022-12-22T05:45:18.099Z,81.30
2022-12-22T05:47:53.060Z,81.50
2022-12-22T05:50:28.096Z,81.60
2022-12-22T05:53:02.097Z,81.10
2022-12-22T05:55:28.973Z,81.30
2022-12-22T05:57:55.807Z,81.50
2022-12-22T06:00:30.060Z,81.40
2022-12-22T06:03:03.217Z,81.60
2022-12-22T06:05:31.420Z,81.70
2022-12-22T06:08:05.066Z,81.70
2022-12-22T06:10:38.189Z,81.60
2022-12-22T06:13:12.075Z,81.60
2022-12-22T06:15:38.968Z,81.50
2022-12-22T06:18:13.118Z,81.50
2022-12-22T06:20:39.957Z,81.40
2022-12-22T06:23:13.103Z,81.40
2022-12-22T06:25:39.997Z,81.30
2022-12-22T06:28:13.135Z,81.40
2022-12-22T06:30:46.133Z,81.40
2022-12-22T06:33:20.083Z,81.60
2022-12-22T06:35:50.887Z,81.50
2022-12-22T06:38:31.099Z,81.60
2022-12-22T06:40:58.034Z,81.50
2022-12-22T06:43:32.082Z,81.60
2022-12-22T06:45:59.035Z,81.30
2022-12-22T06:48:32.077Z,81.50
2022-12-22T06:51:06.083Z,81.50
2022-12-22T06:53:32.912Z,81.30
2022-12-22T06:56:06.084Z,81.30
2022-12-22T06:58:32.897Z,81.30
2022-12-22T07:01:06.071Z,81.40
2022-12-22T07:03:33.011Z,81.40
2022-12-22T07:06:06.076Z,81.50
2022-12-22T07:08:53.057Z,81.70
2022-12-22T07:11:26.043Z,81.90
2022-12-22T07:13:59.048Z,82.00
2022-12-22T07:16:25.876Z,82.00
2022-12-22T07:18:59.065Z,81.80
2022-12-22T07:21:25.927Z,81.80
2022-12-22T07:23:59.093Z,81.60
2022-12-22T07:26:26.007Z,81.70
2022-12-22T07:28:59.124Z,81.60
2022-12-22T07:31:26.070Z,81.00
2022-12-22T07:33:59.117Z,81.00
2022-12-22T07:36:26.015Z,81.00
2022-12-22T07:38:59.053Z,81.60
2022-12-22T07:41:44.497Z,82.00
2022-12-22T07:44:18.074Z,82.20
2022-12-22T07:46:45.063Z,82.30
2022-12-22T07:49:37.079Z,82.40
2022-12-22T07:52:03.989Z,82.40
2022-12-22T07:54:41.609Z,82.40
2022-12-22T07:57:09.000Z,82.30
2022-12-22T07:59:42.069Z,82.30
2022-12-22T08:02:17.161Z,82.30
2022-12-22T08:04:44.238Z,82.10
2022-12-22T08:07:11.222Z,82.00
2022-12-22T08:09:45.054Z,82.20
2022-12-22T08:12:25.138Z,82.20
2022-12-22T08:14:52.028Z,82.30
2022-12-22T08:17:25.087Z,82.20
2022-12-22T08:19:51.922Z,82.10
2022-12-22T08:22:25.113Z,82.20
2022-12-22T08:24:52.284Z,82.10
2022-12-22T08:27:28.104Z,82.10
2022-12-22T08:29:57.464Z,82.20
2022-12-22T08:32:24.695Z,82.60
2022-12-22T08:34:58.110Z,82.90
2022-12-22T08:37:34.122Z,83.00
2022-12-22T08:40:03.239Z,83.00
2022-12-22T08:42:37.139Z,83.10
2022-12-22T08:45:04.599Z,83.20
2022-12-22T08:47:31.711Z,83.20
2022-12-22T08:50:05.121Z,83.00
2022-12-22T08:52:39.113Z,82.90
2022-12-22T08:55:06.406Z,83.00
2022-12-22T08:57:40.088Z,83.10
2022-12-22T09:00:08.652Z,83.10
2022-12-22T09:02:43.210Z,83.10
2022-12-22T09:05:10.354Z,82.90
2022-12-22T09:07:44.106Z,82.80
2022-12-22T09:10:17.223Z,82.90
2022-12-22T09:12:58.084Z,82.90
2022-12-22T09:15:25.143Z,82.70
2022-12-22T09:17:58.126Z,82.80
2022-12-22T09:20:24.957Z,82.80
2022-12-22T09:22:58.087Z,82.90
2022-12-22T09:25:24.948Z,82.80
2022-12-22T09:27:58.073Z,82.60
2022-12-22T09:30:31.094Z,82.80
2022-12-22T09:32:57.905Z,82.90
2022-12-22T09:35:31.087Z,82.90
2022-12-22T09:37:58.577Z,83.00
2022-12-22T09:40:33.180Z,83.00
2022-12-22T09:43:00.053Z,83.10
2022-12-22T09:45:33.154Z,83.10
2022-12-22T09:48:01.452Z,83.00
2022-12-22T09:50:35.106Z,83.00
2022-12-22T09:53:03.983Z,83.10
2022-12-22T09:55:40.068Z,83.10
2022-12-22T09:58:18.332Z,83.20
2022-12-22T10:00:59.096Z,83.20
2022-12-22T10:03:26.019Z,83.50
2022-12-22T10:05:52.916Z,83.50
2022-12-22T10:08:34.065Z,83.50
2022-12-22T10:11:15.077Z,83.40
2022-12-22T10:13:49.087Z,83.50
2022-12-22T10:16:17.115Z,83.40
2022-12-22T10:19:01.094Z,83.50
2022-12-22T10:21:29.022Z,83.90
2022-12-22T10:24:02.077Z,84.90
2022-12-22T10:26:31.522Z,85.90
2022-12-22T10:29:17.134Z,84.80
2022-12-22T10:32:10.255Z,83.70
2022-12-22T10:34:44.090Z,83.00
2022-12-22T10:37:17.111Z,82.60
2022-12-22T10:39:53.087Z,82.40
2022-12-22T10:42:19.970Z,82.40
2022-12-22T10:44:55.459Z,82.30
2022-12-22T10:47:24.703Z,82.40
2022-12-22T10:52:35.088Z,82.40
2022-12-22T10:55:42.103Z,82.50
2022-12-22T10:58:15.144Z,82.60
2022-12-22T11:00:42.402Z,82.60
2022-12-22T11:03:24.202Z,82.50
2022-12-22T11:05:51.765Z,82.60
2022-12-22T11:08:26.233Z,82.60
2022-12-22T11:11:17.446Z,82.70
2022-12-22T11:13:51.117Z,82.80
2022-12-22T11:16:25.659Z,82.90
2022-12-22T11:19:00.145Z,82.90
2022-12-22T11:21:31.831Z,82.90
2022-12-22T11:24:05.123Z,82.90
2022-12-22T11:26:40.812Z,82.90
2022-12-22T11:29:33.083Z,83.00
2022-12-22T11:32:11.610Z,82.90
2022-12-22T11:35:04.132Z,82.90
2022-12-22T11:37:49.105Z,82.90
2022-12-22T11:40:18.964Z,83.00
2022-12-22T11:43:04.101Z,83.30
2022-12-22T11:45:43.075Z,83.40
2022-12-22T11:48:17.110Z,83.40
2022-12-22T11:51:01.567Z,83.30
2022-12-22T11:53:57.124Z,83.20
2022-12-22T11:56:30.247Z,83.30
2022-12-22T11:59:04.099Z,83.20
2022-12-22T12:01:37.050Z,82.80
2022-12-22T12:04:26.198Z,82.70
2022-12-22T12:06:53.174Z,82.40
2022-12-22T12:09:35.105Z,82.50
2022-12-22T12:12:08.220Z,82.50
2022-12-22T12:14:46.113Z,82.50
2022-12-22T12:17:19.024Z,82.70
2022-12-22T12:20:01.220Z,83.00
2022-12-22T12:22:46.778Z,83.20
2022-12-22T12:25:33.083Z,83.30
2022-12-22T12:28:06.261Z,83.40
2022-12-22T12:30:47.134Z,83.40
2022-12-22T12:33:32.450Z,83.30
2022-12-22T12:36:08.130Z,83.40
2022-12-22T12:39:07.652Z,83.40
2022-12-22T12:41:48.163Z,83.50
2022-12-22T12:44:19.024Z,83.60
2022-12-22T12:47:00.229Z,83.50
2022-12-22T12:49:36.293Z,83.30
2022-12-22T12:52:17.194Z,83.30
2022-12-22T12:54:47.663Z,83.00
2022-12-22T12:57:32.123Z,82.90
2022-12-22T13:00:00.112Z,83.00
2022-12-22T13:02:27.148Z,83.10
2022-12-22T13:05:07.096Z,83.20
2022-12-22T13:07:59.117Z,83.20
2022-12-22T13:10:40.153Z,83.10
2022-12-22T13:13:17.386Z,83.00
2022-12-22T13:15:52.141Z,83.00
2022-12-22T13:18:25.167Z,82.90
2022-12-22T13:21:42.084Z,83.10
2022-12-22T13:24:22.967Z,83.00
2022-12-22T13:26:49.153Z,83.30
2022-12-22T13:29:19.776Z,84.40
2022-12-22T13:31:55.190Z,83.70
2022-12-22T13:34:22.054Z,83.40
2022-12-22T13:36:49.676Z,83.30
2022-12-22T13:39:23.140Z,83.20
2022-12-22T13:41:50.475Z,82.90
2022-12-22T13:44:31.137Z,82.80
2022-12-22T13:47:11.462Z,82.70
2022-12-22T13:50:10.840Z,82.70
2022-12-22T13:52:33.981Z,82.60
2022-12-22T13:55:07.159Z,82.60
2022-12-22T13:57:34.039Z,82.60
2022-12-22T14:00:08.208Z,82.80
2022-12-22T14:02:35.560Z,82.70
2022-12-22T14:05:17.180Z,82.90
2022-12-22T14:08:00.619Z,83.30
2022-12-22T14:10:45.169Z,83.40
2022-12-22T14:13:24.726Z,83.40
2022-12-22T14:16:12.168Z,83.40
2022-12-22T14:18:39.731Z,83.40
2022-12-22T14:21:07.552Z,83.40
2022-12-22T14:23:44.273Z,83.30
2022-12-22T14:26:17.632Z,83.40
2022-12-22T14:28:57.167Z,83.40
2022-12-22T14:31:24.109Z,83.40
2022-12-22T14:33:54.871Z,83.50
2022-12-22T14:36:33.194Z,83.40
2022-12-22T14:39:09.537Z,83.50
2022-12-22T14:41:51.718Z,83.60
2022-12-22T14:44:40.203Z,83.40
2022-12-22T14:47:12.040Z,83.40
2022-12-22T14:50:01.217Z,83.50
2022-12-22T14:52:51.081Z,83.90
2022-12-22T14:55:34.186Z,84.10
2022-12-22T14:58:12.517Z,84.40
2022-12-22T15:00:47.197Z,84.30
2022-12-22T15:03:40.254Z,84.20
2022-12-22T15:06:24.802Z,84.00
2022-12-22T15:09:02.206Z,84.00
2022-12-22T15:11:37.463Z,84.10
2022-12-22T15:14:11.273Z,84.20
2022-12-22T15:16:38.175Z,84.30
2022-12-22T15:19:12.166Z,84.50
2022-12-22T15:21:39.079Z,84.60
2022-12-22T15:24:19.235Z,84.60
2022-12-22T15:26:46.674Z,84.60
2022-12-22T15:29:20.340Z,84.60
2022-12-22T15:31:47.274Z,84.70
2022-12-22T15:34:39.189Z,84.70
2022-12-22T15:37:12.124Z,84.70
2022-12-22T15:39:39.051Z,84.80
2022-12-22T15:42:06.172Z,84.90
2022-12-22T15:44:39.580Z,84.90
2022-12-22T15:47:06.582Z,85.10
2022-12-22T15:49:40.219Z,85.10
2022-12-22T15:52:09.965Z,85.10
2022-12-22T15:54:36.925Z,85.00
2022-12-22T15:57:10.284Z,85.10
2022-12-22T15:59:44.247Z,85.20
2022-12-22T16:02:14.635Z,85.20
2022-12-22T16:04:48.184Z,85.40
2022-12-22T16:07:22.286Z,85.50
2022-12-22T16:09:56.379Z,85.40
2022-12-22T16:12:37.229Z,85.30
2022-12-22T16:15:04.424Z,85.30
2022-12-22T16:17:32.981Z,85.50
2022-12-22T16:20:07.211Z,85.60
2022-12-22T16:22:42.207Z,85.70
2022-12-22T16:25:21.125Z,85.90
2022-12-22T16:27:49.615Z,85.80
2022-12-22T16:30:27.137Z,85.70
2022-12-22T16:32:54.071Z,85.70
2022-12-22T16:35:32.182Z,85.70
2022-12-22T16:38:00.138Z,85.70
2022-12-22T16:40:34.174Z,85.70
2022-12-22T16:45:54.193Z,85.70
2022-12-22T16:48:24.986Z,85.70
2022-12-22T16:50:58.182Z,85.60
2022-12-22T16:53:37.873Z,85.80
2022-12-22T16:56:11.135Z,85.90
2022-12-22T16:58:37.999Z,86.00
2022-12-22T17:01:05.024Z,86.10
2022-12-22T17:03:38.205Z,86.10
2022-12-22T17:06:05.898Z,86.00
2022-12-22T17:08:34.860Z,86.20
2022-12-22T17:11:11.057Z,86.40
2022-12-22T17:13:45.457Z,86.50
2022-12-22T17:16:26.193Z,86.70
2022-12-22T17:18:53.144Z,86.80
2022-12-22T17:21:20.995Z,86.80
2022-12-22T17:23:59.191Z,86.80
2022-12-22T17:26:26.142Z,86.80
2022-12-22T17:29:00.181Z,86.70
2022-12-22T17:31:27.264Z,86.90
2022-12-22T17:34:01.194Z,87.40
2022-12-22T17:36:33.331Z,87.80
2022-12-22T17:39:07.182Z,87.70
2022-12-22T17:41:34.023Z,87.10
2022-12-22T17:44:00.924Z,86.80
2022-12-22T17:46:34.163Z,86.60
2022-12-22T17:49:01.046Z,86.60
2022-12-22T17:51:35.317Z,86.70
2022-12-22T17:54:02.395Z,86.60
2022-12-22T17:56:37.169Z,86.50
2022-12-22T17:59:10.163Z,86.60
2022-12-22T18:01:39.580Z,86.60
2022-12-22T18:04:10.105Z,86.60
2022-12-22T18:06:44.287Z,86.70
2022-12-22T18:09:26.237Z,86.80
2022-12-22T18:12:06.231Z,86.80
2022-12-22T18:14:33.158Z,86.80
2022-12-22T18:17:06.217Z,86.70
2022-12-22T18:19:39.262Z,86.60
2022-12-22T18:22:06.301Z,86.80
2022-12-22T18:24:40.248Z,87.00
2022-12-22T18:27:10.667Z,87.10
2022-12-22T18:29:44.207Z,87.30
2022-12-22T18:32:11.264Z,87.30
2022-12-22T18:34:38.681Z,87.30
2022-12-22T18:37:13.231Z,87.30
2022-12-22T18:39:47.262Z,87.20
2022-12-22T18:42:19.867Z,87.10
2022-12-22T18:44:47.003Z,87.20
2022-12-22T18:47:20.370Z,87.30
2022-12-22T18:49:47.498Z,87.30
2022-12-22T18:52:31.246Z,87.30
2022-12-22T18:54:58.187Z,87.30
2022-12-22T18:57:31.269Z,87.30
2022-12-22T18:59:58.246Z,87.20
2022-12-22T19:02:33.337Z,87.20
2022-12-22T19:05:00.243Z,87.20
2022-12-22T19:07:33.207Z,87.30
2022-12-22T19:10:06.326Z,87.30
2022-12-22T19:12:40.270Z,87.30
2022-12-22T19:15:22.257Z,87.40
2022-12-22T19:17:50.557Z,87.50
2022-12-22T19:20:25.258Z,87.40
2022-12-22T19:22:52.217Z,87.40
2022-12-22T19:25:31.236Z,87.50
2022-12-22T19:28:03.267Z,87.50
2022-12-22T19:30:37.208Z,87.60
2022-12-22T19:33:11.259Z,87.70
2022-12-22T19:35:38.210Z,87.70
2022-12-22T19:38:20.258Z,87.60
2022-12-22T19:40:49.780Z,87.70
2022-12-22T19:43:24.212Z,87.70
2022-12-22T19:45:52.267Z,87.80
2022-12-22T19:48:31.159Z,87.70
2022-12-22T19:51:04.180Z,87.60
2022-12-22T19:53:31.016Z,87.50
2022-12-22T19:55:58.105Z,87.40
2022-12-22T19:58:33.189Z,87.40
2022-12-22T20:01:06.177Z,87.40
2022-12-22T20:03:39.273Z,87.40
2022-12-22T20:06:08.913Z,87.40
2022-12-22T20:08:42.187Z,87.30
2022-12-22T20:11:31.204Z,87.30
2022-12-22T20:13:58.083Z,87.40
2022-12-22T20:16:25.069Z,87.40
2022-12-22T20:18:58.214Z,87.50
2022-12-22T20:21:27.054Z,87.40
2022-12-22T20:23:55.151Z,87.40
2022-12-22T20:26:30.131Z,87.30
2022-12-22T20:29:03.182Z,87.40
2022-12-22T20:31:30.182Z,87.40
2022-12-22T20:34:03.217Z,87.30
2022-12-22T20:36:32.055Z,87.30
2022-12-22T20:38:59.797Z,87.20
2022-12-22T20:41:33.173Z,87.20
2022-12-22T20:43:59.995Z,87.30
2022-12-22T20:46:35.215Z,87.40
2022-12-22T20:49:02.773Z,87.50
2022-12-22T20:51:37.183Z,87.40
2022-12-22T20:54:04.126Z,87.50
2022-12-22T20:56:32.434Z,87.40
2022-12-22T20:59:07.236Z,87.30
2022-12-22T21:01:40.318Z,87.40
2022-12-22T21:04:07.348Z,87.30
2022-12-22T21:06:35.613Z,87.20
2022-12-22T21:09:10.192Z,87.30
2022-12-22T21:11:43.697Z,87.20
2022-12-22T21:14:17.210Z,87.30
2022-12-22T21:16:44.273Z,87.30
2022-12-22T21:19:25.202Z,87.40
2022-12-22T21:21:52.115Z,87.20
2022-12-22T21:24:19.025Z,87.40
2022-12-22T21:26:54.268Z,87.50
2022-12-22T21:29:29.266Z,87.20
2022-12-22T21:31:56.131Z,87.20
2022-12-22T21:34:29.244Z,87.10
2022-12-22T21:36:59.926Z,87.30
2022-12-22T21:39:33.205Z,87.30
2022-12-22T21:42:06.180Z,87.20
2022-12-22T21:44:34.106Z,87.30
2022-12-22T21:47:08.207Z,87.30
2022-12-22T21:49:42.154Z,87.10
2022-12-22T21:52:09.162Z,87.10
2022-12-22T21:54:36.027Z,87.00
2022-12-22T21:57:09.197Z,87.00
2022-12-22T21:59:36.109Z,86.80
2022-12-22T22:02:09.323Z,86.80
2022-12-22T22:04:36.332Z,86.60
2022-12-22T22:07:03.223Z,86.70
2022-12-22T22:09:36.161Z,86.80
2022-12-22T22:12:34.233Z,86.90
2022-12-22T22:15:02.308Z,86.70
2022-12-22T22:17:36.231Z,86.70
2022-12-22T22:20:03.900Z,86.60
2022-12-22T22:22:30.813Z,86.40
2022-12-22T22:25:04.305Z,86.50
2022-12-22T22:27:31.575Z,86.70
2022-12-22T22:30:05.198Z,86.80
2022-12-22T22:32:32.038Z,86.80
2022-12-22T22:34:58.866Z,86.60
2022-12-22T22:37:32.225Z,86.40
2022-12-22T22:40:05.170Z,86.50
2022-12-22T22:42:38.229Z,86.50
2022-12-22T22:45:06.122Z,86.60
2022-12-22T22:47:33.057Z,86.50
2022-12-22T22:50:06.248Z,86.50
2022-12-22T22:52:40.173Z,86.50
2022-12-22T22:55:07.207Z,86.60
2022-12-22T22:57:34.104Z,86.60
2022-12-22T23:00:07.196Z,86.60
2022-12-22T23:02:34.198Z,86.50
2022-12-22T23:05:01.288Z,86.10
2022-12-22T23:07:34.262Z,85.90
2022-12-22T23:10:21.172Z,85.90
2022-12-22T23:12:48.121Z,85.90
2022-12-22T23:15:14.983Z,85.90
2022-12-22T23:17:48.241Z,85.90
2022-12-22T23:20:15.048Z,86.00
2022-12-22T23:22:48.265Z,86.10
2022-12-22T23:25:15.101Z,86.10
2022-12-22T23:27:48.240Z,86.00
2022-12-22T23:30:22.231Z,86.10
2022-12-22T23:32:49.065Z,86.10
2022-12-22T23:35:22.211Z,86.30
2022-12-22T23:37:49.083Z,86.20
2022-12-22T23:40:51.196Z,86.00
2022-12-22T23:43:18.247Z,85.90
2022-12-22T23:45:45.121Z,86.20
2022-12-22T23:48:12.005Z,86.30
2022-12-22T23:50:45.218Z,86.20
2022-12-22T23:53:20.121Z,86.20
2022-12-22T23:55:47.854Z,86.30
2022-12-22T23:58:21.215Z,86.40
